createdAt,value
2023-04-27T00:00:02.243Z,77.51
2023-04-27T00:01:02.021Z,77.82
2023-04-27T00:02:02.897Z,77.92
2023-04-27T00:03:03.226Z,77.96
2023-04-27T00:04:02.811Z,78.37
2023-04-27T00:05:02.669Z,79.09
2023-04-27T00:06:02.940Z,79.64
2023-04-27T00:07:03.349Z,80.16
2023-04-27T00:08:02.926Z,79.91
2023-04-27T00:09:02.944Z,79.30
2023-04-27T00:10:03.313Z,78.58
2023-04-27T00:11:02.897Z,78.37
2023-04-27T00:12:03.243Z,77.65
2023-04-27T00:13:03.042Z,78.17
2023-04-27T00:14:03.266Z,77.86
2023-04-27T00:15:02.826Z,79.71
2023-04-27T00:16:02.826Z,77.65
2023-04-27T00:17:02.554Z,77.75
2023-04-27T00:18:02.905Z,78.37
2023-04-27T00:19:02.969Z,79.19
2023-04-27T00:20:02.492Z,79.33
2023-04-27T00:21:02.300Z,80.57
2023-04-27T00:22:03.098Z,80.67
2023-04-27T00:23:03.024Z,80.26
2023-04-27T00:24:03.160Z,80.26
2023-04-27T00:25:02.941Z,80.05
2023-04-27T00:26:03.348Z,80.26
2023-04-27T00:27:03.237Z,80.16
2023-04-27T00:28:03.325Z,79.95
2023-04-27T00:29:03.465Z,80.67
2023-04-27T00:30:03.293Z,81.63
2023-04-27T00:31:02.987Z,82.35
2023-04-27T00:32:03.251Z,82.70
2023-04-27T00:33:03.050Z,82.81
2023-04-27T00:34:02.941Z,82.70
2023-04-27T00:35:03.388Z,82.40
2023-04-27T00:36:03.009Z,82.70
2023-04-27T00:37:02.965Z,83.12
2023-04-27T00:38:03.276Z,82.91
2023-04-27T00:39:03.110Z,83.12
2023-04-27T00:40:03.053Z,83.32
2023-04-27T00:41:03.445Z,82.67
2023-04-27T00:42:02.141Z,82.67
2023-04-27T00:43:02.461Z,82.05
2023-04-27T00:44:02.110Z,82.46
2023-04-27T00:45:02.179Z,82.87
2023-04-27T00:46:02.477Z,82.56
2023-04-27T00:47:02.074Z,82.15
2023-04-27T00:48:02.191Z,81.02
2023-04-27T00:49:02.497Z,80.61
2023-04-27T00:50:02.277Z,80.19
2023-04-27T00:51:02.022Z,81.02
2023-04-27T00:52:02.724Z,81.23
2023-04-27T00:53:02.932Z,81.23
2023-04-27T00:54:02.792Z,81.63
2023-04-27T00:55:02.655Z,82.35
2023-04-27T00:56:02.761Z,82.56
2023-04-27T00:57:02.853Z,82.77
2023-04-27T00:58:02.835Z,82.97
2023-04-27T00:59:03.170Z,82.25
2023-04-27T01:00:02.752Z,82.35
2023-04-27T01:01:02.622Z,82.25
2023-04-27T01:02:02.153Z,82.56
2023-04-27T01:03:02.527Z,82.05
2023-04-27T01:04:02.353Z,81.23
2023-04-27T01:05:02.413Z,80.51
2023-04-27T01:06:02.533Z,79.99
2023-04-27T01:07:02.292Z,80.91
2023-04-27T01:08:02.562Z,81.63
2023-04-27T01:09:02.447Z,81.98
2023-04-27T01:10:02.833Z,82.09
2023-04-27T01:11:02.434Z,81.88
2023-04-27T01:12:01.930Z,81.77
2023-04-27T01:13:02.017Z,82.29
2023-04-27T01:14:01.886Z,82.60
2023-04-27T01:15:01.822Z,82.40
2023-04-27T01:16:01.896Z,81.98
2023-04-27T01:17:02.621Z,81.98
2023-04-27T01:18:02.489Z,80.71
2023-04-27T01:19:02.511Z,80.51
2023-04-27T01:20:02.615Z,79.99
2023-04-27T01:21:02.321Z,79.58
2023-04-27T01:22:01.802Z,79.16
2023-04-27T01:23:01.860Z,78.65
2023-04-27T01:24:02.372Z,80.91
2023-04-27T01:25:02.236Z,79.88
2023-04-27T01:26:01.666Z,81.67
2023-04-27T01:27:02.114Z,82.29
2023-04-27T01:28:02.431Z,82.50
2023-04-27T01:29:02.249Z,82.60
2023-04-27T01:30:02.011Z,83.15
2023-04-27T01:31:02.456Z,83.77
2023-04-27T01:32:02.369Z,83.26
2023-04-27T01:33:02.465Z,83.77
2023-04-27T01:34:02.446Z,83.56
2023-04-27T01:35:02.212Z,83.05
2023-04-27T01:36:02.629Z,82.84
2023-04-27T01:37:01.634Z,83.47
2023-04-27T01:38:02.167Z,83.36
2023-04-27T01:39:01.772Z,82.95
2023-04-27T01:40:02.249Z,82.54
2023-04-27T01:41:01.788Z,82.64
2023-04-27T01:42:02.298Z,82.64
2023-04-27T01:43:02.055Z,83.19
2023-04-27T01:44:02.029Z,82.95
2023-04-27T01:45:02.091Z,82.84
2023-04-27T01:46:02.603Z,82.84
2023-04-27T01:47:01.891Z,82.23
2023-04-27T01:48:01.719Z,81.51
2023-04-27T01:49:01.477Z,82.02
2023-04-27T01:50:01.638Z,82.84
2023-04-27T01:51:01.825Z,82.74
2023-04-27T01:52:02.548Z,83.36
2023-04-27T01:53:02.420Z,83.50
2023-04-27T01:54:02.104Z,83.56
2023-04-27T01:55:02.469Z,83.15
2023-04-27T01:56:02.586Z,82.84
2023-04-27T01:57:01.974Z,82.95
2023-04-27T01:58:01.527Z,83.71
2023-04-27T01:59:02.040Z,83.15
2023-04-27T02:00:02.147Z,82.23
2023-04-27T02:01:01.641Z,82.23
2023-04-27T02:02:02.896Z,81.92
2023-04-27T02:03:03.298Z,82.74
2023-04-27T02:04:03.419Z,83.61
2023-04-27T02:05:02.741Z,83.19
2023-04-27T02:06:03.333Z,83.40
2023-04-27T02:07:02.640Z,83.19
2023-04-27T02:08:02.495Z,83.81
2023-04-27T02:09:02.601Z,84.22
2023-04-27T02:10:02.324Z,84.01
2023-04-27T02:11:02.620Z,83.67
2023-04-27T02:12:03.012Z,82.84
2023-04-27T02:13:02.990Z,82.43
2023-04-27T02:14:02.844Z,82.23
2023-04-27T02:15:03.294Z,82.02
2023-04-27T02:16:02.757Z,81.71
2023-04-27T02:17:02.379Z,81.09
2023-04-27T02:18:01.954Z,80.58
2023-04-27T02:19:02.087Z,82.33
2023-04-27T02:20:01.934Z,81.40
2023-04-27T02:21:02.345Z,82.29
2023-04-27T02:22:02.761Z,83.01
2023-04-27T02:23:02.629Z,80.95
2023-04-27T02:24:02.774Z,81.47
2023-04-27T02:25:03.057Z,80.23
2023-04-27T02:26:02.528Z,80.33
2023-04-27T02:27:03.064Z,80.23
2023-04-27T02:28:03.273Z,80.79
2023-04-27T02:29:03.331Z,80.16
2023-04-27T02:30:03.057Z,80.16
2023-04-27T02:31:03.236Z,79.96
2023-04-27T02:32:02.625Z,80.89
2023-04-27T02:33:02.851Z,81.40
2023-04-27T02:34:02.493Z,81.20
2023-04-27T02:35:02.383Z,81.61
2023-04-27T02:36:02.667Z,81.20
2023-04-27T02:37:02.925Z,80.89
2023-04-27T02:38:03.028Z,80.27
2023-04-27T02:39:03.066Z,80.79
2023-04-27T02:40:02.840Z,81.20
2023-04-27T02:41:02.710Z,82.06
2023-04-27T02:42:02.329Z,82.78
2023-04-27T02:43:02.056Z,83.19
2023-04-27T02:44:01.950Z,84.16
2023-04-27T02:45:02.286Z,84.16
2023-04-27T02:46:01.864Z,83.85
2023-04-27T02:47:02.475Z,84.27
2023-04-27T02:48:02.238Z,84.27
2023-04-27T02:49:02.271Z,85.19
2023-04-27T02:50:02.394Z,85.19
2023-04-27T02:51:02.007Z,84.67
2023-04-27T02:52:02.498Z,85.09
2023-04-27T02:53:02.560Z,85.39
2023-04-27T02:54:02.184Z,85.85
2023-04-27T02:55:02.375Z,86.26
2023-04-27T02:56:02.103Z,86.78
2023-04-27T02:57:02.252Z,86.88
2023-04-27T02:58:02.459Z,86.98
2023-04-27T02:59:01.979Z,86.98
2023-04-27T03:00:03.827Z,87.23
2023-04-27T03:01:01.996Z,87.44
2023-04-27T03:02:03.280Z,87.50
2023-04-27T03:03:03.163Z,86.47
2023-04-27T03:04:03.342Z,85.95
2023-04-27T03:05:03.419Z,85.91
2023-04-27T03:06:03.418Z,86.53
2023-04-27T03:07:02.850Z,85.81
2023-04-27T03:08:02.661Z,85.30
2023-04-27T03:09:02.504Z,85.57
2023-04-27T03:10:02.442Z,85.15
2023-04-27T03:11:02.988Z,85.87
2023-04-27T03:12:03.212Z,85.46
2023-04-27T03:13:02.926Z,84.33
2023-04-27T03:14:02.931Z,83.81
2023-04-27T03:15:02.721Z,84.94
2023-04-27T03:16:02.720Z,84.64
2023-04-27T03:17:03.052Z,83.15
2023-04-27T03:18:03.225Z,83.61
2023-04-27T03:19:02.762Z,84.22
2023-04-27T03:20:03.259Z,84.64
2023-04-27T03:21:02.787Z,84.94
2023-04-27T03:22:02.945Z,85.81
2023-04-27T03:23:03.049Z,85.39
2023-04-27T03:24:03.292Z,85.60
2023-04-27T03:25:02.846Z,85.19
2023-04-27T03:26:03.539Z,85.09
2023-04-27T03:27:02.886Z,84.88
2023-04-27T03:28:02.445Z,84.36
2023-04-27T03:29:02.865Z,84.27
2023-04-27T03:30:02.392Z,84.06
2023-04-27T03:31:03.011Z,84.22
2023-04-27T03:32:03.027Z,83.19
2023-04-27T03:33:02.858Z,84.33
2023-04-27T03:34:03.176Z,85.15
2023-04-27T03:35:03.049Z,85.46
2023-04-27T03:36:02.774Z,84.08
2023-04-27T03:37:03.309Z,83.36
2023-04-27T03:38:03.152Z,83.36
2023-04-27T03:39:03.306Z,83.61
2023-04-27T03:40:02.851Z,83.71
2023-04-27T03:41:02.789Z,83.81
2023-04-27T03:42:02.663Z,84.12
2023-04-27T03:43:02.156Z,84.64
2023-04-27T03:44:02.448Z,85.30
2023-04-27T03:45:02.715Z,85.50
2023-04-27T03:46:02.677Z,85.19
2023-04-27T03:47:02.517Z,85.09
2023-04-27T03:48:03.128Z,85.39
2023-04-27T03:49:02.789Z,85.19
2023-04-27T03:50:03.105Z,85.30
2023-04-27T03:51:02.798Z,85.09
2023-04-27T03:52:02.613Z,85.39
2023-04-27T03:53:03.137Z,85.71
2023-04-27T03:54:03.146Z,84.88
2023-04-27T03:55:02.692Z,84.67
2023-04-27T03:56:03.151Z,85.71
2023-04-27T03:57:03.594Z,84.84
2023-04-27T03:58:03.160Z,84.01
2023-04-27T03:59:03.658Z,83.81
2023-04-27T04:00:03.065Z,83.81
2023-04-27T04:01:03.091Z,83.61
2023-04-27T04:02:03.010Z,83.81
2023-04-27T04:03:03.396Z,84.47
2023-04-27T04:04:02.848Z,84.57
2023-04-27T04:05:02.675Z,83.75
2023-04-27T04:06:03.139Z,84.16
2023-04-27T04:07:02.641Z,83.95
2023-04-27T04:08:02.764Z,84.27
2023-04-27T04:09:02.946Z,83.95
2023-04-27T04:10:02.883Z,84.67
2023-04-27T04:11:02.810Z,84.99
2023-04-27T04:12:02.726Z,85.50
2023-04-27T04:13:02.617Z,85.39
2023-04-27T04:14:02.737Z,85.91
2023-04-27T04:15:02.754Z,85.60
2023-04-27T04:16:02.642Z,84.67
2023-04-27T04:17:02.548Z,84.57
2023-04-27T04:18:02.531Z,85.71
2023-04-27T04:19:02.236Z,85.87
2023-04-27T04:20:02.250Z,85.57
2023-04-27T04:21:02.251Z,85.57
2023-04-27T04:22:02.411Z,85.36
2023-04-27T04:23:02.432Z,85.30
2023-04-27T04:24:02.442Z,85.57
2023-04-27T04:25:02.759Z,86.08
2023-04-27T04:26:02.577Z,85.25
2023-04-27T04:27:02.676Z,85.67
2023-04-27T04:28:02.837Z,85.71
2023-04-27T04:29:02.735Z,84.53
2023-04-27T04:30:02.935Z,84.47
2023-04-27T04:31:03.018Z,84.36
2023-04-27T04:32:02.831Z,83.85
2023-04-27T04:33:02.599Z,84.16
2023-04-27T04:34:02.552Z,84.57
2023-04-27T04:35:02.565Z,84.67
2023-04-27T04:36:02.962Z,84.67
2023-04-27T04:37:01.901Z,84.47
2023-04-27T04:38:01.944Z,84.16
2023-04-27T04:39:01.783Z,83.54
2023-04-27T04:40:01.708Z,83.85
2023-04-27T04:41:01.803Z,83.23
2023-04-27T04:42:02.421Z,84.27
2023-04-27T04:43:02.464Z,84.57
2023-04-27T04:44:02.283Z,85.71
2023-04-27T04:45:02.231Z,86.22
2023-04-27T04:46:02.760Z,85.50
2023-04-27T04:47:02.506Z,84.36
2023-04-27T04:48:02.637Z,84.36
2023-04-27T04:49:02.525Z,85.81
2023-04-27T04:50:02.812Z,85.71
2023-04-27T04:51:02.882Z,85.60
2023-04-27T04:52:02.838Z,84.57
2023-04-27T04:53:02.752Z,83.64
2023-04-27T04:54:02.679Z,83.64
2023-04-27T04:55:02.763Z,84.16
2023-04-27T04:56:02.329Z,84.81
2023-04-27T04:57:02.704Z,85.44
2023-04-27T04:58:02.900Z,85.33
2023-04-27T04:59:02.887Z,85.23
2023-04-27T05:00:02.792Z,84.51
2023-04-27T05:01:02.901Z,83.99
2023-04-27T05:02:03.142Z,83.58
2023-04-27T05:03:02.936Z,83.27
2023-04-27T05:04:03.160Z,83.58
2023-04-27T05:05:02.855Z,84.51
2023-04-27T05:06:02.904Z,85.64
2023-04-27T05:07:03.499Z,86.57
2023-04-27T05:08:03.354Z,87.13
2023-04-27T05:09:03.357Z,87.13
2023-04-27T05:10:03.074Z,87.13
2023-04-27T05:11:03.026Z,87.23
2023-04-27T05:12:02.693Z,87.23
2023-04-27T05:13:03.150Z,87.08
2023-04-27T05:14:03.030Z,86.47
2023-04-27T05:15:02.891Z,86.16
2023-04-27T05:16:02.992Z,85.44
2023-04-27T05:17:02.516Z,84.81
2023-04-27T05:18:02.923Z,84.72
2023-04-27T05:19:02.567Z,84.51
2023-04-27T05:20:02.993Z,84.81
2023-04-27T05:21:02.650Z,84.30
2023-04-27T05:22:03.079Z,84.92
2023-04-27T05:23:03.098Z,85.44
2023-04-27T05:24:02.931Z,85.54
2023-04-27T05:25:02.917Z,86.05
2023-04-27T05:26:03.084Z,85.85
2023-04-27T05:27:02.813Z,86.47
2023-04-27T05:28:02.699Z,86.36
2023-04-27T05:29:02.576Z,85.44
2023-04-27T05:30:02.424Z,85.23
2023-04-27T05:31:02.379Z,84.99
2023-04-27T05:32:02.857Z,84.78
2023-04-27T05:33:02.972Z,84.67
2023-04-27T05:34:03.215Z,84.36
2023-04-27T05:35:03.187Z,84.53
2023-04-27T05:36:03.062Z,84.74
2023-04-27T05:37:02.803Z,85.15
2023-04-27T05:38:02.793Z,85.81
2023-04-27T05:39:02.526Z,86.53
2023-04-27T05:40:02.858Z,86.94
2023-04-27T05:41:02.681Z,87.05
2023-04-27T05:42:02.972Z,87.05
2023-04-27T05:43:03.714Z,87.26
2023-04-27T05:44:03.409Z,87.35
2023-04-27T05:45:03.439Z,87.35
2023-04-27T05:46:03.089Z,87.66
2023-04-27T05:47:02.934Z,87.56
2023-04-27T05:48:03.093Z,87.21
2023-04-27T05:49:02.892Z,87.52
2023-04-27T05:50:02.728Z,87.32
2023-04-27T05:51:02.928Z,86.55
2023-04-27T05:52:02.309Z,86.04
2023-04-27T05:53:02.262Z,86.24
2023-04-27T05:54:02.232Z,85.89
2023-04-27T05:55:02.072Z,85.59
2023-04-27T05:56:02.364Z,85.69
2023-04-27T05:57:02.993Z,85.55
2023-04-27T05:58:08.674Z,85.03
2023-04-27T05:59:03.106Z,85.03
2023-04-27T06:00:02.487Z,84.89
2023-04-27T06:01:02.466Z,84.69
2023-04-27T06:02:03.541Z,84.58
2023-04-27T06:03:03.699Z,84.79
2023-04-27T06:04:03.871Z,84.79
2023-04-27T06:05:03.457Z,84.48
2023-04-27T06:06:03.391Z,84.17
2023-04-27T06:07:02.970Z,84.54
2023-04-27T06:08:02.483Z,84.23
2023-04-27T06:09:02.794Z,83.58
2023-04-27T06:10:02.505Z,83.37
2023-04-27T06:11:02.729Z,83.06
2023-04-27T06:12:02.441Z,82.65
2023-04-27T06:13:02.961Z,82.24
2023-04-27T06:14:02.865Z,82.14
2023-04-27T06:15:02.836Z,82.62
2023-04-27T06:16:03.010Z,82.41
2023-04-27T06:17:03.646Z,82.00
2023-04-27T06:18:03.178Z,82.31
2023-04-27T06:19:03.306Z,82.37
2023-04-27T06:20:03.379Z,82.13
2023-04-27T06:21:03.421Z,81.41
2023-04-27T06:22:03.175Z,80.69
2023-04-27T06:23:02.972Z,80.86
2023-04-27T06:24:02.647Z,79.93
2023-04-27T06:25:02.589Z,80.14
2023-04-27T06:26:02.975Z,80.10
2023-04-27T06:27:02.227Z,78.97
2023-04-27T06:28:02.636Z,79.28
2023-04-27T06:29:02.641Z,80.00
2023-04-27T06:30:02.411Z,79.66
2023-04-27T06:31:02.632Z,79.31
2023-04-27T06:32:02.803Z,78.80
2023-04-27T06:33:03.317Z,78.76
2023-04-27T06:34:02.761Z,78.11
2023-04-27T06:35:02.829Z,77.39
2023-04-27T06:36:02.920Z,75.86
2023-04-27T06:37:03.427Z,76.27
2023-04-27T06:38:04.764Z,75.82
2023-04-27T06:39:03.061Z,76.75
2023-04-27T06:40:03.144Z,76.30
2023-04-27T06:41:03.249Z,76.50
2023-04-27T06:42:02.368Z,74.56
2023-04-27T06:43:02.749Z,74.15
2023-04-27T06:44:02.890Z,74.26
2023-04-27T06:45:02.574Z,74.76
2023-04-27T06:46:02.256Z,73.68
2023-04-27T06:47:02.927Z,73.78
2023-04-27T06:48:02.772Z,75.10
2023-04-27T06:49:02.836Z,74.15
2023-04-27T06:50:03.063Z,73.81
2023-04-27T06:51:02.965Z,73.47
2023-04-27T06:52:03.090Z,72.45
2023-04-27T06:53:03.654Z,72.55
2023-04-27T06:54:03.089Z,72.14
2023-04-27T06:55:03.142Z,72.75
2023-04-27T06:56:03.135Z,72.52
2023-04-27T06:57:03.057Z,72.07
2023-04-27T06:58:03.454Z,70.61
2023-04-27T06:59:03.517Z,69.86
2023-04-27T07:00:03.530Z,70.48
2023-04-27T07:01:03.190Z,69.86
2023-04-27T07:02:03.715Z,70.04
2023-04-27T07:03:03.238Z,70.24
2023-04-27T07:04:03.334Z,68.40
2023-04-27T07:05:03.416Z,67.90
2023-04-27T07:06:03.454Z,68.91
2023-04-27T07:07:02.534Z,69.42
2023-04-27T07:08:04.035Z,68.17
2023-04-27T07:09:06.003Z,67.86
2023-04-27T07:10:02.844Z,66.23
2023-04-27T07:11:02.818Z,65.59
2023-04-27T07:12:03.226Z,64.34
2023-04-27T07:13:03.361Z,63.73
2023-04-27T07:14:03.414Z,64.03
2023-04-27T07:15:03.417Z,64.51
2023-04-27T07:16:03.077Z,62.98
2023-04-27T07:17:02.676Z,62.45
2023-04-27T07:18:02.673Z,63.46
2023-04-27T07:19:02.875Z,64.07
2023-04-27T07:20:02.830Z,61.40
2023-04-27T07:21:02.639Z,62.41
2023-04-27T07:22:03.295Z,61.30
2023-04-27T07:23:03.715Z,59.88
2023-04-27T07:24:03.352Z,59.98
2023-04-27T07:25:03.121Z,60.49
2023-04-27T07:26:03.061Z,61.71
2023-04-27T07:27:03.115Z,62.32
2023-04-27T07:28:02.953Z,60.59
2023-04-27T07:29:11.157Z,61.60
2023-04-27T07:30:03.039Z,59.37
2023-04-27T07:31:03.024Z,59.67
2023-04-27T07:32:02.943Z,60.31
2023-04-27T07:33:02.769Z,59.50
2023-04-27T07:34:02.890Z,60.00
2023-04-27T07:35:03.281Z,61.33
2023-04-27T07:36:03.209Z,61.33
2023-04-27T07:37:03.418Z,61.22
2023-04-27T07:38:03.742Z,62.11
2023-04-27T07:39:03.235Z,61.40
2023-04-27T07:40:03.201Z,61.91
2023-04-27T07:41:03.489Z,57.54
2023-04-27T07:42:02.731Z,57.95
2023-04-27T07:43:02.751Z,58.04
2023-04-27T07:44:02.868Z,58.76
2023-04-27T07:45:02.862Z,58.45
2023-04-27T07:46:02.974Z,59.06
2023-04-27T07:47:03.172Z,57.34
2023-04-27T07:48:03.362Z,58.35
2023-04-27T07:49:03.468Z,57.84
2023-04-27T07:50:03.510Z,56.93
2023-04-27T07:51:03.045Z,57.10
2023-04-27T07:52:02.934Z,55.48
2023-04-27T07:53:03.137Z,57.10
2023-04-27T07:54:03.175Z,56.77
2023-04-27T07:55:02.800Z,55.86
2023-04-27T07:56:02.851Z,56.98
2023-04-27T07:57:03.594Z,56.47
2023-04-27T07:58:03.539Z,56.49
2023-04-27T07:59:03.351Z,56.39
2023-04-27T08:00:03.795Z,55.78
2023-04-27T08:01:03.503Z,54.97
2023-04-27T08:02:17.709Z,55.68
2023-04-27T08:03:01.782Z,55.48
2023-04-27T08:04:02.036Z,55.27
2023-04-27T08:05:02.165Z,54.44
2023-04-27T08:06:02.440Z,54.13
2023-04-27T08:07:02.533Z,55.86
2023-04-27T08:08:02.061Z,54.82
2023-04-27T08:09:02.240Z,56.04
2023-04-27T08:10:01.846Z,54.51
2023-04-27T08:11:01.831Z,54.00
2023-04-27T08:12:02.264Z,55.53
2023-04-27T08:13:02.477Z,55.91
2023-04-27T08:14:02.036Z,55.40
2023-04-27T08:15:02.396Z,54.39
2023-04-27T08:16:02.283Z,55.10
2023-04-27T08:17:02.326Z,55.30
2023-04-27T08:18:02.700Z,54.49
2023-04-27T08:19:02.129Z,52.97
2023-04-27T08:20:02.453Z,54.57
2023-04-27T08:21:02.455Z,53.55
2023-04-27T08:22:02.179Z,54.05
2023-04-27T08:23:02.145Z,54.26
2023-04-27T08:24:02.170Z,53.42
2023-04-27T08:25:02.342Z,52.51
2023-04-27T08:26:01.856Z,52.20
2023-04-27T08:27:02.420Z,52.44
2023-04-27T08:28:02.597Z,52.73
2023-04-27T08:29:11.680Z,51.21
2023-04-27T08:30:02.488Z,52.53
2023-04-27T08:31:02.382Z,52.23
2023-04-27T08:32:02.621Z,53.14
2023-04-27T08:33:02.752Z,52.94
2023-04-27T08:34:03.059Z,51.52
2023-04-27T08:35:02.931Z,53.63
2023-04-27T08:36:02.633Z,52.28
2023-04-27T08:37:02.486Z,52.31
2023-04-27T08:38:02.128Z,52.59
2023-04-27T08:39:02.042Z,52.18
2023-04-27T08:40:02.204Z,51.04
2023-04-27T08:41:14.077Z,50.13
2023-04-27T08:42:02.218Z,50.54
2023-04-27T08:43:02.527Z,51.25
2023-04-27T08:44:02.685Z,49.02
2023-04-27T08:45:02.183Z,51.53
2023-04-27T08:46:02.617Z,50.92
2023-04-27T08:47:02.226Z,50.31
2023-04-27T08:48:01.971Z,51.32
2023-04-27T08:49:01.808Z,50.92
2023-04-27T08:50:02.096Z,50.71
2023-04-27T08:51:02.250Z,50.34
2023-04-27T08:52:02.148Z,49.32
2023-04-27T08:53:02.544Z,49.42
2023-04-27T08:54:02.426Z,50.94
2023-04-27T08:55:02.173Z,49.62
2023-04-27T08:56:02.404Z,49.62
2023-04-27T08:57:02.697Z,50.03
2023-04-27T08:58:02.074Z,50.23
2023-04-27T08:59:02.036Z,50.94
2023-04-27T09:00:02.100Z,50.61
2023-04-27T09:01:02.682Z,50.41
2023-04-27T09:02:02.931Z,50.71
2023-04-27T09:03:02.610Z,50.41
2023-04-27T09:04:03.055Z,49.80
2023-04-27T09:05:02.644Z,49.17
2023-04-27T09:06:05.658Z,49.17
2023-04-27T09:07:02.868Z,49.45
2023-04-27T09:08:02.856Z,49.02
2023-04-27T09:09:02.762Z,48.65
2023-04-27T09:10:02.921Z,48.72
2023-04-27T09:11:02.781Z,49.22
2023-04-27T09:12:02.132Z,47.20
2023-04-27T09:13:02.149Z,47.51
2023-04-27T09:14:02.321Z,46.20
2023-04-27T09:15:02.597Z,47.39
2023-04-27T09:16:01.998Z,46.68
2023-04-27T09:17:02.315Z,45.89
2023-04-27T09:18:02.661Z,47.51
2023-04-27T09:19:02.284Z,47.91
2023-04-27T09:20:02.408Z,47.11
2023-04-27T09:21:02.458Z,47.00
2023-04-27T09:22:02.958Z,48.72
2023-04-27T09:23:02.819Z,47.11
2023-04-27T09:24:03.013Z,47.41
2023-04-27T09:25:02.729Z,48.19
2023-04-27T09:26:02.763Z,48.07
2023-04-27T09:27:02.633Z,47.56
2023-04-27T09:28:02.837Z,46.25
2023-04-27T09:29:02.875Z,45.75
2023-04-27T09:30:02.859Z,45.45
2023-04-27T09:31:03.264Z,47.06
2023-04-27T09:32:02.389Z,47.85
2023-04-27T09:33:02.571Z,47.54
2023-04-27T09:34:02.110Z,46.53
2023-04-27T09:35:02.396Z,46.64
2023-04-27T09:36:02.670Z,46.84
2023-04-27T09:37:02.570Z,46.03
2023-04-27T09:38:02.520Z,46.13
2023-04-27T09:39:02.504Z,45.93
2023-04-27T09:40:02.815Z,46.53
2023-04-27T09:41:02.596Z,46.25
2023-04-27T09:42:02.663Z,47.26
2023-04-27T09:43:02.935Z,46.43
2023-04-27T09:44:02.825Z,46.84
2023-04-27T09:45:03.036Z,46.31
2023-04-27T09:46:03.141Z,45.10
2023-04-27T09:47:02.427Z,45.70
2023-04-27T09:48:02.571Z,45.70
2023-04-27T09:49:02.485Z,45.38
2023-04-27T09:50:02.386Z,45.78
2023-04-27T09:51:02.474Z,45.16
2023-04-27T09:52:02.478Z,45.16
2023-04-27T09:53:02.519Z,44.25
2023-04-27T09:54:02.962Z,44.17
2023-04-27T09:55:02.661Z,44.35
2023-04-27T09:56:02.815Z,44.25
2023-04-27T09:57:02.671Z,45.64
2023-04-27T09:58:02.674Z,43.12
2023-04-27T09:59:02.736Z,44.02
2023-04-27T10:00:02.801Z,44.43
2023-04-27T10:01:02.805Z,43.82
2023-04-27T10:02:10.051Z,44.45
2023-04-27T10:03:02.081Z,45.26
2023-04-27T10:04:02.136Z,45.86
2023-04-27T10:05:02.371Z,45.36
2023-04-27T10:06:01.836Z,45.97
2023-04-27T10:07:02.947Z,46.45
2023-04-27T10:08:02.630Z,46.85
2023-04-27T10:09:02.631Z,47.03
2023-04-27T10:10:02.829Z,47.20
2023-04-27T10:11:02.646Z,46.38
2023-04-27T10:12:01.909Z,44.77
2023-04-27T10:13:02.238Z,43.76
2023-04-27T10:14:02.082Z,45.35
2023-04-27T10:15:01.703Z,43.64
2023-04-27T10:16:01.950Z,44.17
2023-04-27T10:17:02.242Z,44.77
2023-04-27T10:18:02.557Z,45.95
2023-04-27T10:19:02.653Z,44.37
2023-04-27T10:20:02.367Z,44.47
2023-04-27T10:21:02.381Z,44.24
2023-04-27T10:22:01.918Z,43.56
2023-04-27T10:23:02.074Z,43.06
2023-04-27T10:24:01.796Z,42.78
2023-04-27T10:25:02.116Z,44.59
2023-04-27T10:26:02.130Z,44.89
2023-04-27T10:27:02.009Z,43.18
2023-04-27T10:28:02.056Z,43.88
2023-04-27T10:29:02.144Z,45.00
2023-04-27T10:30:02.343Z,44.37
2023-04-27T10:31:02.503Z,44.07
2023-04-27T10:32:02.374Z,44.24
2023-04-27T10:33:02.334Z,43.54
2023-04-27T10:34:02.422Z,45.45
2023-04-27T10:35:02.533Z,44.93
2023-04-27T10:36:02.656Z,45.73
2023-04-27T10:37:02.523Z,44.00
2023-04-27T10:38:02.609Z,44.20
2023-04-27T10:39:02.230Z,43.48
2023-04-27T10:40:02.411Z,43.68
2023-04-27T10:41:02.479Z,42.97
2023-04-27T10:42:02.719Z,44.18
2023-04-27T10:43:02.577Z,41.47
2023-04-27T10:44:02.901Z,42.58
2023-04-27T10:45:02.607Z,42.10
2023-04-27T10:46:02.493Z,42.80
2023-04-27T10:47:01.932Z,43.70
2023-04-27T10:48:02.161Z,43.50
2023-04-27T10:49:02.240Z,43.10
2023-04-27T10:50:01.962Z,44.02
2023-04-27T10:51:01.861Z,43.20
2023-04-27T10:52:02.183Z,43.50
2023-04-27T10:53:01.856Z,43.48
2023-04-27T10:54:02.246Z,42.58
2023-04-27T10:55:02.398Z,41.87
2023-04-27T10:56:01.921Z,42.07
2023-04-27T10:57:02.548Z,41.89
2023-04-27T10:58:02.579Z,42.61
2023-04-27T10:59:02.780Z,42.41
2023-04-27T11:00:02.682Z,43.52
2023-04-27T11:01:02.829Z,42.11
2023-04-27T11:02:03.178Z,43.04
2023-04-27T11:03:02.667Z,43.64
2023-04-27T11:04:02.666Z,42.94
2023-04-27T11:05:02.922Z,42.96
2023-04-27T11:06:02.954Z,44.04
2023-04-27T11:07:02.336Z,43.64
2023-04-27T11:08:02.025Z,43.24
2023-04-27T11:09:02.413Z,43.06
2023-04-27T11:10:02.613Z,44.37
2023-04-27T11:11:02.594Z,43.96
2023-04-27T11:12:02.124Z,44.19
2023-04-27T11:13:02.170Z,44.29
2023-04-27T11:14:02.268Z,45.00
2023-04-27T11:15:02.122Z,43.91
2023-04-27T11:16:01.716Z,45.01
2023-04-27T11:17:02.280Z,44.79
2023-04-27T11:18:01.874Z,43.96
2023-04-27T11:19:02.070Z,43.96
2023-04-27T11:20:02.281Z,43.66
2023-04-27T11:21:02.007Z,44.67
2023-04-27T11:22:02.793Z,44.95
2023-04-27T11:23:02.575Z,44.63
2023-04-27T11:24:02.904Z,43.52
2023-04-27T11:25:02.454Z,45.41
2023-04-27T11:26:02.494Z,44.79
2023-04-27T11:27:02.476Z,43.98
2023-04-27T11:28:02.623Z,44.46
2023-04-27T11:29:02.368Z,42.96
2023-04-27T11:30:02.195Z,41.65
2023-04-27T11:31:02.317Z,42.16
2023-04-27T11:32:02.661Z,42.38
2023-04-27T11:33:02.745Z,43.68
2023-04-27T11:34:03.994Z,43.38
2023-04-27T11:35:02.248Z,41.99
2023-04-27T11:36:02.571Z,42.52
2023-04-27T11:38:02.235Z,43.04
2023-04-27T11:39:02.259Z,43.64
2023-04-27T11:40:01.978Z,44.55
2023-04-27T11:41:01.717Z,43.14
2023-04-27T11:42:02.346Z,45.05
2023-04-27T11:43:02.183Z,45.55
2023-04-27T11:44:02.428Z,46.46
2023-04-27T11:45:02.098Z,47.14
2023-04-27T11:46:02.368Z,45.51
2023-04-27T11:47:03.163Z,43.08
2023-04-27T11:48:03.277Z,43.68
2023-04-27T11:49:03.179Z,43.56
2023-04-27T11:50:03.168Z,43.76
2023-04-27T11:51:02.907Z,42.86
2023-04-27T11:52:02.255Z,44.96
2023-04-27T11:53:01.659Z,44.84
2023-04-27T11:54:02.073Z,43.54
2023-04-27T11:55:01.614Z,42.54
2023-04-27T11:56:02.166Z,42.94
2023-04-27T11:57:02.206Z,43.44
2023-04-27T11:58:02.269Z,43.42
2023-04-27T11:59:01.999Z,44.82
2023-04-27T12:00:02.009Z,43.02
2023-04-27T12:01:01.978Z,43.70
2023-04-27T12:02:02.881Z,44.50
2023-04-27T12:03:03.091Z,42.88
2023-04-27T12:04:02.866Z,43.38
2023-04-27T12:05:02.634Z,44.56
2023-04-27T12:07:03.007Z,42.66
2023-04-27T12:08:02.561Z,42.76
2023-04-27T12:09:02.720Z,41.46
2023-04-27T12:10:02.738Z,42.55
2023-04-27T12:11:02.973Z,40.25
2023-04-27T12:12:02.625Z,41.77
2023-04-27T12:13:02.173Z,41.38
2023-04-27T12:14:02.524Z,41.57
2023-04-27T12:15:02.310Z,40.39
2023-04-27T12:16:02.430Z,41.91
2023-04-27T12:17:02.884Z,42.02
2023-04-27T12:18:02.291Z,42.99
2023-04-27T12:19:02.806Z,43.18
2023-04-27T12:20:02.925Z,43.48
2023-04-27T12:21:03.470Z,43.16
2023-04-27T12:22:02.943Z,41.35
2023-04-27T12:23:02.750Z,42.25
2023-04-27T12:24:02.361Z,41.96
2023-04-27T12:25:02.465Z,40.45
2023-04-27T12:26:02.310Z,41.67
2023-04-27T12:27:01.855Z,40.07
2023-04-27T12:28:01.893Z,40.81
2023-04-27T12:29:01.960Z,42.32
2023-04-27T12:30:01.929Z,42.13
2023-04-27T12:31:02.095Z,41.63
2023-04-27T12:32:02.133Z,44.32
2023-04-27T12:33:02.418Z,42.61
2023-04-27T12:34:02.181Z,42.61
2023-04-27T12:35:02.412Z,43.12
2023-04-27T12:36:02.171Z,43.10
2023-04-27T12:37:02.459Z,41.89
2023-04-27T12:38:02.901Z,42.68
2023-04-27T12:39:02.882Z,41.17
2023-04-27T12:40:03.024Z,41.57
2023-04-27T12:41:02.716Z,40.47
2023-04-27T12:42:02.873Z,40.89
2023-04-27T12:43:02.592Z,41.60
2023-04-27T12:44:01.883Z,41.29
2023-04-27T12:45:02.010Z,41.39
2023-04-27T12:46:02.245Z,41.99
2023-04-27T12:47:02.043Z,41.97
2023-04-27T12:48:04.171Z,41.67
2023-04-27T12:49:02.313Z,42.88
2023-04-27T12:50:02.606Z,42.77
2023-04-27T12:51:02.817Z,43.66
2023-04-27T12:52:02.801Z,42.55
2023-04-27T12:53:02.274Z,42.83
2023-04-27T12:54:02.399Z,43.84